SDM6573 ULLI-UNKL
Flight info
| Callsign | SDM6573 |
|---|---|
| Flight time | N/A |
| Altitude | 33000 |
| Route | KERIS1A KERIS P989 DIKEP L870 PITIN/K0867F350 L870 HMN B228 TODES R497 KUMOD N869 KELOK B115 RANET RANET2S |
| Aircraft | B738/M-SDE2E3FGHIRWXY/LB1 |
Departure
| Time | N/A |
|---|---|
| Airport | Pulkovo Airport (ULLI) |
Arrival
| Time | 2026-04-28 14:23 |
|---|---|
| Airport | Krasnoyarsk International Airport (UNKL) |
| Time | Latitude | Longitude | Altitude | Speed | Heading |
|---|---|---|---|---|---|
| 2026-04-28 11:54 | 61.64097 | 58.33715 | 34788 ft | 447 kts | 105° |
| 2026-04-28 11:54 | 61.63750 | 58.40097 | 34791 ft | 446 kts | 106° |
| 2026-04-28 11:55 | 61.63083 | 58.52530 | 34795 ft | 447 kts | 105° |
| 2026-04-28 11:56 | 61.61160 | 58.91837 | 34796 ft | 448 kts | 105° |
| 2026-04-28 11:57 | 61.60488 | 59.04921 | 34798 ft | 450 kts | 105° |
| 2026-04-28 11:57 | 61.59801 | 59.18007 | 34797 ft | 451 kts | 105° |
| 2026-04-28 11:58 | 61.59098 | 59.31189 | 34805 ft | 453 kts | 105° |
| 2026-04-28 11:58 | 61.58383 | 59.44340 | 34808 ft | 455 kts | 105° |
| 2026-04-28 11:59 | 61.57653 | 59.57556 | 34807 ft | 456 kts | 105° |
| 2026-04-28 11:59 | 61.56910 | 59.70772 | 34815 ft | 457 kts | 105° |
| 2026-04-28 12:00 | 61.56153 | 59.84004 | 34829 ft | 457 kts | 105° |
| 2026-04-28 12:00 | 61.55383 | 59.97253 | 34822 ft | 457 kts | 105° |
| 2026-04-28 12:01 | 61.54599 | 60.10511 | 34822 ft | 458 kts | 105° |
| 2026-04-28 12:01 | 61.53803 | 60.23783 | 34829 ft | 459 kts | 105° |
| 2026-04-28 12:02 | 61.52990 | 60.37144 | 34829 ft | 459 kts | 105° |
| 2026-04-28 12:02 | 61.52172 | 60.50412 | 34837 ft | 459 kts | 105° |
| 2026-04-28 12:03 | 61.51322 | 60.63943 | 34831 ft | 459 kts | 106° |
| 2026-04-28 12:03 | 61.50470 | 60.77294 | 34832 ft | 460 kts | 106° |
| 2026-04-28 12:04 | 61.49750 | 60.88415 | 34836 ft | 460 kts | 106° |
| 2026-04-28 12:04 | 61.48882 | 61.01644 | 34894 ft | 458 kts | 106° |
| 2026-04-28 12:05 | 61.47996 | 61.14960 | 34907 ft | 459 kts | 106° |
| 2026-04-28 12:05 | 61.47097 | 61.28286 | 34914 ft | 459 kts | 106° |
| 2026-04-28 12:06 | 61.46194 | 61.41518 | 34910 ft | 461 kts | 106° |
| 2026-04-28 12:06 | 61.45272 | 61.54889 | 34917 ft | 462 kts | 106° |
| 2026-04-28 12:07 | 61.44342 | 61.68190 | 34919 ft | 463 kts | 106° |
| 2026-04-28 12:07 | 61.43390 | 61.81601 | 34917 ft | 464 kts | 106° |
| 2026-04-28 12:08 | 61.42429 | 61.94927 | 34924 ft | 464 kts | 106° |
| 2026-04-28 12:08 | 61.41445 | 62.08368 | 34918 ft | 465 kts | 106° |
| 2026-04-28 12:09 | 61.40451 | 62.21791 | 34929 ft | 465 kts | 106° |
| 2026-04-28 12:09 | 61.39442 | 62.35228 | 34931 ft | 466 kts | 106° |
| 2026-04-28 12:10 | 61.38426 | 62.48578 | 34932 ft | 466 kts | 106° |
| 2026-04-28 12:10 | 61.37398 | 62.61927 | 34934 ft | 467 kts | 107° |
| 2026-04-28 12:11 | 61.36357 | 62.75298 | 34929 ft | 467 kts | 107° |
| 2026-04-28 12:11 | 61.35316 | 62.88657 | 34940 ft | 467 kts | 107° |
| 2026-04-28 12:12 | 61.34261 | 63.02041 | 34947 ft | 467 kts | 107° |
| 2026-04-28 12:12 | 61.33194 | 63.15401 | 34941 ft | 468 kts | 107° |
| 2026-04-28 12:13 | 61.32120 | 63.28672 | 34944 ft | 468 kts | 107° |
| 2026-04-28 12:13 | 61.31040 | 63.41844 | 34946 ft | 468 kts | 107° |
| 2026-04-28 12:14 | 61.29935 | 63.55187 | 34957 ft | 469 kts | 107° |
| 2026-04-28 12:14 | 61.28876 | 63.68605 | 34942 ft | 473 kts | 102° |
| 2026-04-28 12:15 | 61.28440 | 63.82347 | 34954 ft | 477 kts | 99° |
| 2026-04-28 12:15 | 61.28123 | 63.96119 | 34954 ft | 477 kts | 99° |
| 2026-04-28 12:16 | 61.27781 | 64.08467 | 34945 ft | 477 kts | 99° |
| 2026-04-28 12:16 | 61.27345 | 64.22323 | 34960 ft | 477 kts | 99° |
| 2026-04-28 12:17 | 61.26895 | 64.36090 | 34962 ft | 478 kts | 99° |
| 2026-04-28 12:17 | 61.26437 | 64.49852 | 34965 ft | 478 kts | 99° |
| 2026-04-28 12:18 | 61.25969 | 64.63642 | 34961 ft | 479 kts | 99° |
| 2026-04-28 12:18 | 61.25497 | 64.77470 | 34964 ft | 479 kts | 99° |
| 2026-04-28 12:19 | 61.25013 | 64.91294 | 34965 ft | 480 kts | 99° |
| 2026-04-28 12:19 | 61.24513 | 65.05142 | 34967 ft | 481 kts | 99° |
| 2026-04-28 12:20 | 61.24004 | 65.18863 | 35021 ft | 480 kts | 99° |
| 2026-04-28 12:20 | 61.23477 | 65.32663 | 35019 ft | 481 kts | 99° |
| 2026-04-28 12:21 | 61.22931 | 65.46552 | 35043 ft | 481 kts | 99° |
| 2026-04-28 12:21 | 61.22373 | 65.60417 | 35047 ft | 481 kts | 99° |
| 2026-04-28 12:22 | 61.21801 | 65.74257 | 35044 ft | 482 kts | 99° |
| 2026-04-28 12:22 | 61.21239 | 65.87534 | 35052 ft | 483 kts | 100° |
| 2026-04-28 12:23 | 61.20632 | 66.01526 | 35054 ft | 483 kts | 100° |
| 2026-04-28 12:23 | 61.20023 | 66.15262 | 35052 ft | 484 kts | 99° |
| 2026-04-28 12:24 | 61.19391 | 66.29167 | 35061 ft | 484 kts | 99° |
| 2026-04-28 12:24 | 61.18855 | 66.40743 | 35060 ft | 485 kts | 99° |
| 2026-04-28 12:25 | 61.18084 | 66.57016 | 35062 ft | 486 kts | 99° |
| 2026-04-28 12:25 | 61.17406 | 66.70969 | 35067 ft | 486 kts | 99° |
| 2026-04-28 12:26 | 61.16833 | 66.82544 | 35077 ft | 486 kts | 99° |
| 2026-04-28 12:26 | 61.16130 | 66.96472 | 35076 ft | 486 kts | 99° |
| 2026-04-28 12:27 | 61.15414 | 67.10367 | 35082 ft | 486 kts | 99° |
| 2026-04-28 12:27 | 61.14682 | 67.24276 | 35084 ft | 485 kts | 99° |
| 2026-04-28 12:28 | 61.13939 | 67.38149 | 35076 ft | 485 kts | 99° |
| 2026-04-28 12:28 | 61.13175 | 67.52131 | 35088 ft | 486 kts | 99° |
| 2026-04-28 12:29 | 61.12008 | 67.72980 | 35081 ft | 486 kts | 99° |
| 2026-04-28 12:30 | 61.11212 | 67.86875 | 35088 ft | 486 kts | 100° |
| 2026-04-28 12:30 | 61.10401 | 68.00779 | 35084 ft | 487 kts | 100° |
| 2026-04-28 12:31 | 61.09572 | 68.14769 | 35078 ft | 487 kts | 99° |
| 2026-04-28 12:31 | 61.08742 | 68.28476 | 35077 ft | 488 kts | 99° |
| 2026-04-28 12:32 | 61.07867 | 68.42565 | 35079 ft | 488 kts | 99° |
| 2026-04-28 12:32 | 61.06992 | 68.56419 | 35076 ft | 489 kts | 99° |
| 2026-04-28 12:33 | 61.06102 | 68.70325 | 35073 ft | 489 kts | 99° |
| 2026-04-28 12:33 | 61.05197 | 68.84240 | 35073 ft | 489 kts | 99° |
| 2026-04-28 12:34 | 61.04280 | 68.98155 | 35070 ft | 489 kts | 99° |
| 2026-04-28 12:34 | 61.03011 | 69.11865 | 35068 ft | 486 kts | 111° |
| 2026-04-28 12:35 | 61.00095 | 69.24398 | 35077 ft | 479 kts | 125° |
| 2026-04-28 12:35 | 60.96797 | 69.35499 | 35076 ft | 479 kts | 125° |
| 2026-04-28 12:36 | 60.93350 | 69.47171 | 35077 ft | 480 kts | 124° |
| 2026-04-28 12:36 | 60.89926 | 69.58916 | 35081 ft | 481 kts | 124° |
| 2026-04-28 12:37 | 60.86686 | 69.70013 | 35079 ft | 481 kts | 124° |
| 2026-04-28 12:37 | 60.83237 | 69.81764 | 35093 ft | 482 kts | 124° |
| 2026-04-28 12:38 | 60.79765 | 69.93516 | 35089 ft | 482 kts | 124° |
| 2026-04-28 12:38 | 60.76186 | 70.05359 | 35087 ft | 482 kts | 124° |
| 2026-04-28 12:39 | 60.72626 | 70.17012 | 35097 ft | 483 kts | 124° |
| 2026-04-28 12:39 | 60.69062 | 70.28664 | 35102 ft | 484 kts | 124° |
| 2026-04-28 12:40 | 60.65490 | 70.40306 | 35104 ft | 484 kts | 124° |
| 2026-04-28 12:40 | 60.62248 | 70.52439 | 35101 ft | 487 kts | 110° |
| 2026-04-28 12:41 | 60.60115 | 70.65602 | 35109 ft | 487 kts | 108° |
| 2026-04-28 12:41 | 60.58038 | 70.78837 | 35122 ft | 488 kts | 108° |
| 2026-04-28 12:42 | 60.55925 | 70.91947 | 35122 ft | 488 kts | 109° |
| 2026-04-28 12:42 | 60.53766 | 71.05044 | 35129 ft | 489 kts | 109° |
| 2026-04-28 12:43 | 60.51598 | 71.18037 | 35140 ft | 489 kts | 109° |
| 2026-04-28 12:43 | 60.49448 | 71.30842 | 35139 ft | 490 kts | 109° |
| 2026-04-28 12:44 | 60.47210 | 71.44086 | 35148 ft | 490 kts | 109° |
| 2026-04-28 12:44 | 60.44991 | 71.57125 | 35157 ft | 490 kts | 109° |
| 2026-04-28 12:45 | 60.42734 | 71.70295 | 35159 ft | 491 kts | 109° |
| 2026-04-28 12:45 | 60.40490 | 71.83307 | 35165 ft | 491 kts | 109° |
| 2026-04-28 12:46 | 60.38593 | 71.94229 | 35167 ft | 491 kts | 109° |
| 2026-04-28 12:46 | 60.36316 | 72.07253 | 35172 ft | 491 kts | 109° |
| 2026-04-28 12:47 | 60.33997 | 72.20422 | 35172 ft | 491 kts | 109° |
| 2026-04-28 12:47 | 60.31680 | 72.33492 | 35177 ft | 491 kts | 109° |
| 2026-04-28 12:48 | 60.29370 | 72.46437 | 35187 ft | 490 kts | 109° |
| 2026-04-28 12:48 | 60.27049 | 72.59355 | 35184 ft | 491 kts | 109° |
| 2026-04-28 12:49 | 60.24709 | 72.72281 | 35183 ft | 491 kts | 109° |
| 2026-04-28 12:49 | 60.22358 | 72.85181 | 35186 ft | 491 kts | 109° |
| 2026-04-28 12:50 | 60.19998 | 72.98052 | 35198 ft | 491 kts | 109° |
| 2026-04-28 12:50 | 60.17606 | 73.11008 | 35190 ft | 491 kts | 109° |
| 2026-04-28 12:51 | 60.15215 | 73.23861 | 35195 ft | 492 kts | 109° |
| 2026-04-28 12:51 | 60.12789 | 73.36824 | 35195 ft | 492 kts | 109° |
| 2026-04-28 12:52 | 60.10354 | 73.49761 | 35190 ft | 493 kts | 109° |
| 2026-04-28 12:52 | 60.07933 | 73.62525 | 35216 ft | 493 kts | 109° |
| 2026-04-28 12:53 | 60.05513 | 73.75197 | 35240 ft | 493 kts | 109° |
| 2026-04-28 12:53 | 60.03036 | 73.88087 | 35251 ft | 493 kts | 109° |
| 2026-04-28 12:54 | 60.00565 | 74.00864 | 35249 ft | 493 kts | 109° |
| 2026-04-28 12:54 | 59.98074 | 74.13664 | 35251 ft | 494 kts | 109° |
| 2026-04-28 12:55 | 59.95554 | 74.26530 | 35254 ft | 494 kts | 109° |
| 2026-04-28 12:55 | 59.93041 | 74.39277 | 35254 ft | 494 kts | 109° |
| 2026-04-28 12:56 | 59.90513 | 74.52014 | 35257 ft | 494 kts | 109° |
| 2026-04-28 12:56 | 59.87953 | 74.64833 | 35254 ft | 494 kts | 109° |
| 2026-04-28 12:57 | 59.85403 | 74.77521 | 35255 ft | 494 kts | 109° |
| 2026-04-28 12:57 | 59.82819 | 74.90293 | 35276 ft | 494 kts | 109° |
| 2026-04-28 12:58 | 59.80212 | 75.03108 | 35272 ft | 494 kts | 109° |
| 2026-04-28 12:58 | 59.77684 | 75.15461 | 35257 ft | 493 kts | 109° |
| 2026-04-28 12:59 | 59.75083 | 75.28122 | 35270 ft | 493 kts | 108° |
| 2026-04-28 12:59 | 59.72977 | 75.41012 | 35277 ft | 489 kts | 102° |
| 2026-04-28 13:00 | 59.71415 | 75.51840 | 35259 ft | 489 kts | 102° |
| 2026-04-28 13:00 | 59.69494 | 75.64895 | 35275 ft | 489 kts | 102° |
| 2026-04-28 13:01 | 59.67514 | 75.77879 | 35279 ft | 490 kts | 103° |
| 2026-04-28 13:01 | 59.65487 | 75.90946 | 35277 ft | 490 kts | 103° |
| 2026-04-28 13:02 | 59.63474 | 76.03839 | 35278 ft | 491 kts | 103° |
| 2026-04-28 13:02 | 59.61437 | 76.16809 | 35272 ft | 492 kts | 103° |
| 2026-04-28 13:03 | 59.59396 | 76.29713 | 35272 ft | 492 kts | 103° |
| 2026-04-28 13:03 | 59.57344 | 76.42597 | 35285 ft | 493 kts | 103° |
| 2026-04-28 13:04 | 59.55263 | 76.55504 | 35282 ft | 493 kts | 103° |
| 2026-04-28 13:04 | 59.53156 | 76.68314 | 35285 ft | 493 kts | 104° |
| 2026-04-28 13:05 | 59.51014 | 76.81265 | 35295 ft | 492 kts | 104° |
| 2026-04-28 13:05 | 59.48887 | 76.94073 | 35299 ft | 492 kts | 104° |
| 2026-04-28 13:06 | 59.46759 | 77.06848 | 35291 ft | 491 kts | 103° |
| 2026-04-28 13:06 | 59.44625 | 77.19680 | 35297 ft | 490 kts | 103° |
| 2026-04-28 13:07 | 59.42500 | 77.32376 | 35305 ft | 490 kts | 103° |
| 2026-04-28 13:07 | 59.40339 | 77.45195 | 35303 ft | 490 kts | 104° |
| 2026-04-28 13:08 | 59.38185 | 77.57878 | 35305 ft | 489 kts | 104° |
| 2026-04-28 13:08 | 59.36019 | 77.70538 | 35301 ft | 489 kts | 104° |
| 2026-04-28 13:09 | 59.33844 | 77.83169 | 35303 ft | 490 kts | 104° |
| 2026-04-28 13:09 | 59.31653 | 77.95806 | 35306 ft | 490 kts | 104° |
| 2026-04-28 13:10 | 59.29445 | 78.08449 | 35309 ft | 490 kts | 104° |
| 2026-04-28 13:10 | 59.27230 | 78.21042 | 35303 ft | 490 kts | 104° |
| 2026-04-28 13:11 | 59.25001 | 78.33645 | 35302 ft | 490 kts | 104° |
| 2026-04-28 13:11 | 59.22762 | 78.46204 | 35305 ft | 490 kts | 104° |
| 2026-04-28 13:12 | 59.20508 | 78.58758 | 35306 ft | 490 kts | 104° |
| 2026-04-28 13:12 | 59.18243 | 78.71291 | 35299 ft | 490 kts | 104° |
| 2026-04-28 13:13 | 59.15969 | 78.83800 | 35307 ft | 489 kts | 104° |
| 2026-04-28 13:13 | 59.13687 | 78.96274 | 35298 ft | 489 kts | 104° |
| 2026-04-28 13:14 | 59.11391 | 79.08731 | 35310 ft | 488 kts | 105° |
| 2026-04-28 13:14 | 59.09088 | 79.21148 | 35314 ft | 488 kts | 105° |
| 2026-04-28 13:15 | 59.06760 | 79.33619 | 35309 ft | 487 kts | 105° |
| 2026-04-28 13:15 | 59.04452 | 79.45908 | 35305 ft | 487 kts | 105° |
| 2026-04-28 13:16 | 59.02107 | 79.58314 | 35304 ft | 486 kts | 105° |
| 2026-04-28 13:16 | 58.99754 | 79.70684 | 35311 ft | 485 kts | 105° |
| 2026-04-28 13:17 | 58.97393 | 79.83014 | 35314 ft | 484 kts | 105° |
| 2026-04-28 13:17 | 58.95437 | 79.93172 | 35310 ft | 484 kts | 105° |
| 2026-04-28 13:18 | 58.92672 | 80.07445 | 35316 ft | 483 kts | 105° |
| 2026-04-28 13:18 | 58.90686 | 80.17632 | 35311 ft | 483 kts | 106° |
| 2026-04-28 13:19 | 58.88155 | 80.30548 | 35315 ft | 483 kts | 106° |
| 2026-04-28 13:19 | 58.85744 | 80.42689 | 35312 ft | 483 kts | 106° |
| 2026-04-28 13:20 | 58.83701 | 80.52855 | 35317 ft | 483 kts | 107° |
| 2026-04-28 13:20 | 58.81259 | 80.64944 | 35321 ft | 483 kts | 107° |
| 2026-04-28 13:21 | 58.78824 | 80.76947 | 35325 ft | 483 kts | 107° |
| 2026-04-28 13:21 | 58.76342 | 80.89115 | 35319 ft | 483 kts | 107° |
| 2026-04-28 13:22 | 58.73876 | 81.01139 | 35322 ft | 483 kts | 107° |
| 2026-04-28 13:22 | 58.71394 | 81.13173 | 35323 ft | 483 kts | 107° |
| 2026-04-28 13:23 | 58.68909 | 81.25171 | 35321 ft | 483 kts | 108° |
| 2026-04-28 13:23 | 58.66422 | 81.37164 | 35324 ft | 483 kts | 108° |
| 2026-04-28 13:24 | 58.63905 | 81.49242 | 35335 ft | 483 kts | 108° |
| 2026-04-28 13:24 | 58.61398 | 81.61200 | 35325 ft | 483 kts | 108° |
| 2026-04-28 13:25 | 58.58883 | 81.73149 | 35334 ft | 483 kts | 108° |
| 2026-04-28 13:26 | 58.53702 | 81.97484 | 35328 ft | 483 kts | 109° |
| 2026-04-28 13:26 | 58.51150 | 82.09351 | 35335 ft | 482 kts | 109° |
| 2026-04-28 13:27 | 58.48588 | 82.21205 | 35344 ft | 481 kts | 109° |
| 2026-04-28 13:27 | 58.46028 | 82.33008 | 35340 ft | 481 kts | 109° |
| 2026-04-28 13:28 | 58.43437 | 82.44872 | 35341 ft | 481 kts | 109° |
| 2026-04-28 13:28 | 58.40856 | 82.56628 | 35342 ft | 481 kts | 109° |
| 2026-04-28 13:29 | 58.38261 | 82.68381 | 35355 ft | 481 kts | 110° |
| 2026-04-28 13:29 | 58.35655 | 82.80113 | 35368 ft | 480 kts | 110° |
| 2026-04-28 13:30 | 58.33027 | 82.91892 | 35380 ft | 480 kts | 110° |
| 2026-04-28 13:30 | 58.30570 | 83.02830 | 35379 ft | 481 kts | 110° |
| 2026-04-28 13:31 | 58.26609 | 83.20360 | 35376 ft | 481 kts | 110° |
| 2026-04-28 13:31 | 58.23960 | 83.32029 | 35379 ft | 481 kts | 110° |
| 2026-04-28 13:32 | 58.21299 | 83.43687 | 35377 ft | 482 kts | 111° |
| 2026-04-28 13:32 | 58.18621 | 83.55346 | 35378 ft | 482 kts | 111° |
| 2026-04-28 13:33 | 58.15935 | 83.66971 | 35377 ft | 481 kts | 111° |
| 2026-04-28 13:33 | 58.13243 | 83.78564 | 35381 ft | 481 kts | 111° |
| 2026-04-28 13:34 | 58.10526 | 83.90209 | 35386 ft | 480 kts | 111° |
| 2026-04-28 13:34 | 58.07817 | 84.01743 | 35387 ft | 480 kts | 111° |
| 2026-04-28 13:35 | 58.05100 | 84.13253 | 35385 ft | 479 kts | 111° |
| 2026-04-28 13:35 | 58.02800 | 84.22948 | 35386 ft | 479 kts | 111° |
| 2026-04-28 13:36 | 57.99606 | 84.36350 | 35387 ft | 479 kts | 112° |
| 2026-04-28 13:36 | 57.97327 | 84.45862 | 35387 ft | 479 kts | 112° |
| 2026-04-28 13:37 | 57.94574 | 84.57293 | 35388 ft | 479 kts | 112° |
| 2026-04-28 13:37 | 57.91810 | 84.68712 | 35386 ft | 479 kts | 112° |
| 2026-04-28 13:38 | 57.89035 | 84.80112 | 35390 ft | 479 kts | 112° |
| 2026-04-28 13:38 | 57.86231 | 84.91571 | 35382 ft | 480 kts | 113° |
| 2026-04-28 13:39 | 57.83434 | 85.02943 | 35399 ft | 479 kts | 113° |
| 2026-04-28 13:39 | 57.80630 | 85.14285 | 35394 ft | 479 kts | 114° |
| 2026-04-28 13:40 | 57.77815 | 85.25609 | 35394 ft | 479 kts | 114° |
| 2026-04-28 13:40 | 57.74992 | 85.36914 | 35386 ft | 479 kts | 114° |
| 2026-04-28 13:41 | 57.72161 | 85.48191 | 35385 ft | 479 kts | 114° |
| 2026-04-28 13:41 | 57.69321 | 85.59444 | 35385 ft | 478 kts | 114° |
| 2026-04-28 13:42 | 57.66472 | 85.70672 | 35392 ft | 478 kts | 114° |
| 2026-04-28 13:42 | 57.63615 | 85.81885 | 35385 ft | 478 kts | 114° |
| 2026-04-28 13:43 | 57.60749 | 85.93075 | 35390 ft | 478 kts | 114° |
| 2026-04-28 13:43 | 57.57872 | 86.04250 | 35385 ft | 478 kts | 115° |
| 2026-04-28 13:44 | 57.54986 | 86.15395 | 35386 ft | 477 kts | 115° |
| 2026-04-28 13:44 | 57.52098 | 86.26502 | 35385 ft | 477 kts | 115° |
| 2026-04-28 13:45 | 57.49198 | 86.37600 | 35386 ft | 477 kts | 115° |
| 2026-04-28 13:45 | 57.46291 | 86.48667 | 35389 ft | 477 kts | 115° |
| 2026-04-28 13:46 | 57.43374 | 86.59719 | 35386 ft | 477 kts | 116° |
| 2026-04-28 13:46 | 57.40448 | 86.70751 | 35387 ft | 477 kts | 116° |
| 2026-04-28 13:47 | 57.37506 | 86.81789 | 35390 ft | 477 kts | 116° |
| 2026-04-28 13:47 | 57.34562 | 86.92783 | 35386 ft | 477 kts | 116° |
| 2026-04-28 13:48 | 57.31599 | 87.03791 | 35387 ft | 477 kts | 116° |
| 2026-04-28 13:48 | 57.28628 | 87.14777 | 35385 ft | 478 kts | 117° |
| 2026-04-28 13:49 | 57.25646 | 87.25753 | 35389 ft | 478 kts | 117° |
| 2026-04-28 13:49 | 57.22651 | 87.36723 | 35376 ft | 478 kts | 117° |
| 2026-04-28 13:50 | 57.19646 | 87.47674 | 35349 ft | 478 kts | 117° |
| 2026-04-28 13:50 | 57.16631 | 87.58606 | 35350 ft | 479 kts | 117° |
| 2026-04-28 13:51 | 57.13608 | 87.69524 | 35358 ft | 478 kts | 117° |
| 2026-04-28 13:51 | 57.10556 | 87.80488 | 35342 ft | 478 kts | 118° |
| 2026-04-28 13:52 | 57.07518 | 87.91349 | 35352 ft | 477 kts | 118° |
| 2026-04-28 13:52 | 57.04474 | 88.02181 | 35347 ft | 477 kts | 118° |
| 2026-04-28 13:53 | 57.01424 | 88.12987 | 35364 ft | 476 kts | 118° |
| 2026-04-28 13:53 | 56.98366 | 88.23771 | 35348 ft | 476 kts | 119° |
| 2026-04-28 13:54 | 56.95305 | 88.34517 | 35331 ft | 476 kts | 119° |
| 2026-04-28 13:54 | 56.92217 | 88.45313 | 35331 ft | 476 kts | 119° |
| 2026-04-28 13:55 | 56.89376 | 88.56364 | 35339 ft | 477 kts | 114° |
| 2026-04-28 13:55 | 56.86880 | 88.67679 | 35330 ft | 477 kts | 113° |
| 2026-04-28 13:56 | 56.84413 | 88.78925 | 35330 ft | 476 kts | 114° |
| 2026-04-28 13:56 | 56.81898 | 88.90133 | 35298 ft | 477 kts | 114° |
| 2026-04-28 13:57 | 56.79781 | 88.99430 | 35302 ft | 477 kts | 114° |
| 2026-04-28 13:57 | 56.76789 | 89.12474 | 35294 ft | 478 kts | 115° |
| 2026-04-28 13:58 | 56.74206 | 89.23669 | 35284 ft | 478 kts | 115° |
| 2026-04-28 13:58 | 56.71619 | 89.34827 | 35288 ft | 478 kts | 115° |
| 2026-04-28 13:59 | 56.69024 | 89.45966 | 35281 ft | 478 kts | 115° |
| 2026-04-28 13:59 | 56.66399 | 89.57168 | 35276 ft | 479 kts | 116° |
| 2026-04-28 14:00 | 56.63779 | 89.68294 | 35270 ft | 479 kts | 116° |
| 2026-04-28 14:00 | 56.61149 | 89.79407 | 35275 ft | 479 kts | 116° |
| 2026-04-28 14:01 | 56.58493 | 89.90567 | 34771 ft | 487 kts | 116° |
| 2026-04-28 14:01 | 56.57148 | 89.96200 | 34201 ft | 486 kts | 117° |
| 2026-04-28 14:01 | 56.55804 | 90.01819 | 33566 ft | 486 kts | 117° |
| 2026-04-28 14:02 | 56.54438 | 90.07513 | 32912 ft | 486 kts | 117° |
| 2026-04-28 14:02 | 56.53105 | 90.13055 | 32244 ft | 487 kts | 117° |
| 2026-04-28 14:02 | 56.51740 | 90.18715 | 31547 ft | 487 kts | 118° |
| 2026-04-28 14:02 | 56.50816 | 90.22536 | 31076 ft | 487 kts | 118° |
| 2026-04-28 14:03 | 56.49448 | 90.28179 | 30332 ft | 488 kts | 118° |
| 2026-04-28 14:03 | 56.47644 | 90.35606 | 29336 ft | 489 kts | 118° |
| 2026-04-28 14:03 | 56.46710 | 90.39440 | 28795 ft | 489 kts | 118° |
| 2026-04-28 14:03 | 56.44893 | 90.46882 | 27727 ft | 489 kts | 118° |
| 2026-04-28 14:04 | 56.43959 | 90.50697 | 27198 ft | 489 kts | 118° |
| 2026-04-28 14:04 | 56.42585 | 90.56297 | 26445 ft | 487 kts | 118° |
| 2026-04-28 14:04 | 56.41208 | 90.61893 | 25575 ft | 488 kts | 118° |
| 2026-04-28 14:04 | 56.39829 | 90.67485 | 24878 ft | 484 kts | 118° |
| 2026-04-28 14:05 | 56.38513 | 90.72813 | 24261 ft | 479 kts | 118° |
| 2026-04-28 14:05 | 56.37151 | 90.78308 | 23620 ft | 474 kts | 119° |
| 2026-04-28 14:05 | 56.35812 | 90.83694 | 22989 ft | 469 kts | 119° |
| 2026-04-28 14:05 | 56.34481 | 90.89034 | 22358 ft | 464 kts | 119° |
| 2026-04-28 14:06 | 56.33163 | 90.94305 | 21737 ft | 459 kts | 118° |
| 2026-04-28 14:06 | 56.31855 | 90.99525 | 21112 ft | 455 kts | 118° |
| 2026-04-28 14:06 | 56.30559 | 91.04694 | 20490 ft | 450 kts | 118° |
| 2026-04-28 14:06 | 56.29274 | 91.09804 | 19880 ft | 446 kts | 118° |
| 2026-04-28 14:07 | 56.28151 | 91.14990 | 19254 ft | 446 kts | 106° |
| 2026-04-28 14:07 | 56.27666 | 91.20489 | 18738 ft | 442 kts | 99° |
| 2026-04-28 14:07 | 56.27281 | 91.25957 | 18127 ft | 439 kts | 99° |
| 2026-04-28 14:07 | 56.26889 | 91.31370 | 17532 ft | 435 kts | 99° |
| 2026-04-28 14:08 | 56.26478 | 91.36733 | 16933 ft | 431 kts | 99° |
| 2026-04-28 14:08 | 56.26053 | 91.42024 | 16339 ft | 427 kts | 100° |
| 2026-04-28 14:08 | 56.25617 | 91.47308 | 15743 ft | 423 kts | 99° |
| 2026-04-28 14:08 | 56.25181 | 91.52515 | 15157 ft | 419 kts | 99° |
| 2026-04-28 14:09 | 56.24748 | 91.57680 | 14574 ft | 416 kts | 99° |
| 2026-04-28 14:09 | 56.24317 | 91.62792 | 14000 ft | 412 kts | 99° |
| 2026-04-28 14:09 | 56.23921 | 91.67865 | 13422 ft | 408 kts | 95° |
| 2026-04-28 14:09 | 56.24148 | 91.72887 | 12921 ft | 401 kts | 76° |
| 2026-04-28 14:10 | 56.24771 | 91.77734 | 12385 ft | 396 kts | 76° |
| 2026-04-28 14:10 | 56.25356 | 91.82558 | 11829 ft | 393 kts | 76° |
| 2026-04-28 14:10 | 56.25909 | 91.87333 | 11346 ft | 387 kts | 77° |
| 2026-04-28 14:10 | 56.26434 | 91.91981 | 11201 ft | 372 kts | 77° |
| 2026-04-28 14:11 | 56.26936 | 91.96473 | 11039 ft | 360 kts | 77° |
| 2026-04-28 14:11 | 56.27419 | 92.00814 | 10881 ft | 348 kts | 77° |
| 2026-04-28 14:11 | 56.27888 | 92.05024 | 10730 ft | 338 kts | 77° |
| 2026-04-28 14:11 | 56.28343 | 92.09107 | 10594 ft | 328 kts | 77° |
| 2026-04-28 14:12 | 56.28782 | 92.13076 | 10450 ft | 319 kts | 77° |
| 2026-04-28 14:12 | 56.29209 | 92.16934 | 10317 ft | 310 kts | 77° |
| 2026-04-28 14:12 | 56.29481 | 92.20728 | 10213 ft | 301 kts | 91° |
| 2026-04-28 14:12 | 56.29265 | 92.24414 | 10011 ft | 297 kts | 97° |
| 2026-04-28 14:13 | 56.28991 | 92.28138 | 9613 ft | 301 kts | 96° |
| 2026-04-28 14:13 | 56.28730 | 92.31900 | 9295 ft | 303 kts | 96° |
| 2026-04-28 14:13 | 56.28483 | 92.35658 | 8989 ft | 302 kts | 96° |
| 2026-04-28 14:13 | 56.28243 | 92.39398 | 8677 ft | 301 kts | 96° |
| 2026-04-28 14:14 | 56.28005 | 92.43185 | 8161 ft | 311 kts | 95° |
| 2026-04-28 14:14 | 56.27764 | 92.47032 | 7728 ft | 306 kts | 95° |
| 2026-04-28 14:14 | 56.27500 | 92.50980 | 7369 ft | 304 kts | 96° |
| 2026-04-28 14:14 | 56.27252 | 92.54751 | 7052 ft | 296 kts | 96° |
| 2026-04-28 14:15 | 56.27020 | 92.58362 | 6752 ft | 286 kts | 96° |
| 2026-04-28 14:15 | 56.26780 | 92.61916 | 6444 ft | 278 kts | 96° |
| 2026-04-28 14:15 | 56.26550 | 92.65278 | 6306 ft | 262 kts | 96° |
| 2026-04-28 14:15 | 56.26244 | 92.68380 | 6157 ft | 244 kts | 108° |
| 2026-04-28 14:16 | 56.25592 | 92.71078 | 5979 ft | 230 kts | 117° |
| 2026-04-28 14:16 | 56.24933 | 92.73682 | 5581 ft | 227 kts | 111° |
| 2026-04-28 14:16 | 56.24335 | 92.76290 | 5363 ft | 219 kts | 113° |
| 2026-04-28 14:16 | 56.23717 | 92.78804 | 5121 ft | 215 kts | 113° |
| 2026-04-28 14:17 | 56.23126 | 92.81229 | 4913 ft | 210 kts | 113° |
| 2026-04-28 14:17 | 56.22284 | 92.83318 | 4668 ft | 202 kts | 150° |
| 2026-04-28 14:17 | 56.20990 | 92.84016 | 4538 ft | 193 kts | 185° |
| 2026-04-28 14:17 | 56.19721 | 92.83494 | 4417 ft | 184 kts | 209° |
| 2026-04-28 14:18 | 56.18544 | 92.82573 | 4322 ft | 185 kts | 208° |
| 2026-04-28 14:18 | 56.17362 | 92.81661 | 4240 ft | 184 kts | 208° |
| 2026-04-28 14:18 | 56.16185 | 92.80754 | 4180 ft | 184 kts | 208° |
| 2026-04-28 14:18 | 56.15011 | 92.79845 | 4106 ft | 184 kts | 209° |
| 2026-04-28 14:19 | 56.13820 | 92.78923 | 3952 ft | 189 kts | 208° |
| 2026-04-28 14:19 | 56.12619 | 92.77962 | 3767 ft | 186 kts | 216° |
| 2026-04-28 14:19 | 56.11799 | 92.76331 | 3563 ft | 172 kts | 250° |
| 2026-04-28 14:19 | 56.11560 | 92.74335 | 3376 ft | 158 kts | 274° |
| 2026-04-28 14:20 | 56.11836 | 92.72551 | 3300 ft | 144 kts | 296° |
| 2026-04-28 14:20 | 56.12226 | 92.70876 | 3117 ft | 146 kts | 292° |
| 2026-04-28 14:20 | 56.12598 | 92.69222 | 2962 ft | 145 kts | 294° |
| 2026-04-28 14:20 | 56.12980 | 92.67568 | 2780 ft | 143 kts | 294° |
| 2026-04-28 14:21 | 56.13369 | 92.65911 | 2603 ft | 146 kts | 294° |
| 2026-04-28 14:21 | 56.13766 | 92.64234 | 2411 ft | 147 kts | 294° |
| 2026-04-28 14:21 | 56.14169 | 92.62520 | 2211 ft | 150 kts | 294° |
| 2026-04-28 14:21 | 56.14573 | 92.60808 | 2009 ft | 149 kts | 294° |
| 2026-04-28 14:22 | 56.14982 | 92.59083 | 1807 ft | 148 kts | 295° |
| 2026-04-28 14:22 | 56.15382 | 92.57391 | 1589 ft | 148 kts | 295° |
| 2026-04-28 14:22 | 56.15795 | 92.55720 | 1424 ft | 145 kts | 293° |
| 2026-04-28 14:22 | 56.16173 | 92.53992 | 1228 ft | 149 kts | 294° |
| 2026-04-28 14:23 | 56.16455 | 92.52847 | 1105 ft | 151 kts | 294° |
| 2026-04-28 14:23 | 56.16877 | 92.51102 | 954 ft | 145 kts | 295° |
| 2026-04-28 14:23 | 56.17207 | 92.49707 | 953 ft | 82 kts | 293° |
| 2026-04-28 14:23 | 56.17342 | 92.49142 | 952 ft | 19 kts | 294° |
| 2026-04-28 14:24 | 56.17375 | 92.48997 | 953 ft | 12 kts | 291° |
| 2026-04-28 14:24 | 56.17423 | 92.48830 | 952 ft | 18 kts | 307° |
| 2026-04-28 14:24 | 56.17519 | 92.48670 | 954 ft | 17 kts | 325° |
| 2026-04-28 14:24 | 56.17602 | 92.48559 | 955 ft | 14 kts | 324° |
| 2026-04-28 14:25 | 56.17658 | 92.48486 | 956 ft | 6 kts | 325° |
| 2026-04-28 14:25 | 56.17692 | 92.48445 | 956 ft | 6 kts | 326° |
| 2026-04-28 14:25 | 56.17744 | 92.48407 | 953 ft | 12 kts | 355° |
| 2026-04-28 14:25 | 56.17836 | 92.48459 | 956 ft | 13 kts | 22° |
| 2026-04-28 14:26 | 56.17903 | 92.48510 | 955 ft | 11 kts | 23° |
| 2026-04-28 14:26 | 56.17942 | 92.48540 | 956 ft | 2 kts | 23° |
| 2026-04-28 14:26 | 56.17947 | 92.48543 | 956 ft | 0 kts | 23° |